Time;durP1;ratioP1;P1;durP2;ratioP2;P2;SDS_P1;SDS_P2;PMS_P1;PMS_P2;Temp;Humidity;BMP_temperature;BMP_pressure;BME280_temperature;BME280_humidity;BME280_pressure;Samples;Min_cycle;Max_cycle;Signal;HPM_P1;HPM_P2
2022/10/22 00:01:31;;;;;;;3.17;1.25;;;;;;;17.68;64.13;100825.09;6250966;22;20019;-81
2022/10/22 00:03:57;;;;;;;2.15;1.00;;;;;;;17.68;64.26;100827.69;6277664;22;20020;-81
2022/10/22 00:06:22;;;;;;;1.67;1.23;;;;;;;17.68;64.32;100830.28;6225299;22;20012;-81
2022/10/22 00:08:47;;;;;;;2.40;1.33;;;;;;;17.68;63.90;100825.09;6250125;22;20066;-80
2022/10/22 00:11:15;;;;;;;1.83;1.05;;;;;;;17.68;64.34;100818.16;6225410;22;20012;-81
2022/10/22 00:13:41;;;;;;;1.77;1.10;;;;;;;17.68;64.19;100822.47;6277549;22;20000;-81
2022/10/22 00:16:07;;;;;;;2.20;1.25;;;;;;;17.66;64.36;100822.53;6250288;22;20339;-80
2022/10/22 00:18:32;;;;;;;2.30;1.30;;;;;;;17.67;64.24;100820.78;6225294;22;20053;-80
2022/10/22 00:20:57;;;;;;;2.67;1.17;;;;;;;17.67;64.18;100816.44;6225500;22;20092;-81
2022/10/22 00:23:23;;;;;;;2.03;1.20;;;;;;;17.68;64.34;100819.88;6279353;22;20008;-80
2022/10/22 00:25:48;;;;;;;1.75;1.17;;;;;;;17.66;64.18;100822.53;6226940;22;20077;-80
2022/10/22 00:28:14;;;;;;;1.40;1.10;;;;;;;17.68;64.31;100827.69;6252626;22;20099;-81
2022/10/22 00:30:39;;;;;;;1.70;1.00;;;;;;;17.67;64.03;100832.03;6252236;22;20012;-81
2022/10/22 00:33:05;;;;;;;1.75;1.20;;;;;;;17.67;64.17;100828.59;6253693;22;20011;-81
2022/10/22 00:35:31;;;;;;;1.98;1.33;;;;;;;17.67;64.21;100831.19;6257608;22;20347;-81
2022/10/22 00:37:56;;;;;;;1.50;1.00;;;;;;;17.67;64.03;100834.66;6282759;22;20015;-81
2022/10/22 00:40:21;;;;;;;1.83;1.00;;;;;;;17.66;64.27;100832.94;6283199;22;20015;-80
2022/10/22 00:42:49;;;;;;;2.65;1.15;;;;;;;17.65;64.03;100831.19;6232623;22;20450;-81
2022/10/22 00:45:23;;;;;;;1.55;1.00;;;;;;;17.66;64.17;100830.34;6257626;22;20015;-81
2022/10/22 00:47:51;;;;;;;;;;;;;;;17.67;64.34;100841.59;6282998;22;20007;-81
2022/10/22 00:50:31;;;;;;;2.30;1.10;;;;;;;17.66;64.40;100845.94;6310050;22;19931;-81
2022/10/22 00:52:57;;;;;;;2.90;1.00;;;;;;;17.66;64.10;100852.91;6282758;22;20006;-80
2022/10/22 00:55:25;;;;;;;1.70;1.00;;;;;;;17.65;64.36;100846.81;6282724;22;20007;-81
2022/10/22 00:57:53;;;;;;;1.55;0.95;;;;;;;17.65;64.13;100849.41;6310297;22;20441;-81
2022/10/22 01:00:19;;;;;;;2.35;1.30;;;;;;;17.65;64.22;100845.94;6282656;22;20002;-81
2022/10/22 01:02:44;;;;;;;2.20;1.10;;;;;;;17.66;63.80;100845.09;6282599;22;20065;-81
2022/10/22 01:05:10;;;;;;;1.58;0.90;;;;;;;17.66;64.19;100845.94;6233343;22;20040;-81
2022/10/22 01:07:41;;;;;;;2.05;1.25;;;;;;;17.66;64.17;100845.09;6257361;22;20011;-81
2022/10/22 01:10:34;;;;;;;1.65;1.08;;;;;;;17.65;63.93;100857.22;6282496;22;20381;-81
2022/10/22 01:13:34;;;;;;;2.08;1.00;;;;;;;17.66;64.18;100858.97;6283043;22;20322;-81
2022/10/22 01:16:28;;;;;;;1.60;0.80;;;;;;;17.67;64.09;100854.59;6282401;22;20007;-80
2022/10/22 01:19:23;;;;;;;2.05;0.90;;;;;;;17.66;64.17;100860.69;6282673;22;20018;-81
2022/10/22 01:21:55;;;;;;;1.80;1.15;;;;;;;17.66;64.24;100855.50;6309887;22;20003;-80
2022/10/22 01:24:53;;;;;;;1.17;0.88;;;;;;;17.66;64.13;100856.34;6282502;22;20011;-80
2022/10/22 01:27:23;;;;;;;1.60;0.90;;;;;;;17.66;64.16;100856.34;6282193;22;20438;-81
2022/10/22 01:30:00;;;;;;;2.38;1.02;;;;;;;17.66;64.52;100855.50;6282905;22;20010;-81
2022/10/22 01:32:30;;;;;;;2.58;1.05;;;;;;;17.66;64.04;100858.97;6282142;22;20019;-82
2022/10/22 01:35:06;;;;;;;2.08;1.10;;;;;;;17.66;64.15;100853.75;6282452;22;20439;-81
2022/10/22 01:37:37;;;;;;;2.30;1.25;;;;;;;17.66;64.24;100853.75;6282593;22;20061;-81
2022/10/22 01:40:04;;;;;;;1.98;0.90;;;;;;;17.66;64.25;100848.56;6282580;22;20030;-81
2022/10/22 01:42:30;;;;;;;1.83;1.00;;;;;;;17.66;64.32;100847.69;6309477;22;20339;-82
2022/10/22 01:44:55;;;;;;;1.90;1.00;;;;;;;17.66;64.19;100850.28;6257316;22;20007;-81
2022/10/22 01:47:40;;;;;;;2.17;1.05;;;;;;;17.66;64.17;100845.94;6257327;22;20069;-81
2022/10/22 01:50:26;;;;;;;1.13;0.80;;;;;;;17.66;64.07;100850.28;6309740;22;20052;-81
2022/10/22 01:53:21;;;;;;;1.50;0.90;;;;;;;17.66;64.24;100851.16;6282541;22;19992;-81
2022/10/22 01:55:53;;;;;;;2.65;0.90;;;;;;;17.66;64.28;100850.28;6309723;22;20026;-81
2022/10/22 01:58:46;;;;;;;1.92;1.10;;;;;;;17.66;64.12;100845.09;6282191;22;20010;-81
2022/10/22 02:01:42;;;;;;;1.27;0.85;;;;;;;17.67;64.24;100854.59;6309515;22;20000;-81
2022/10/22 02:04:14;;;;;;;1.73;1.00;;;;;;;17.65;64.01;100843.34;6282222;22;20019;-81
2022/10/22 02:06:43;;;;;;;1.50;0.80;;;;;;;17.65;64.12;100844.19;6282468;22;20007;-80
2022/10/22 02:09:11;;;;;;;1.38;0.80;;;;;;;17.66;64.02;100845.09;6282245;22;20343;-80
2022/10/22 02:11:37;;;;;;;1.60;0.82;;;;;;;17.66;64.18;100845.94;6282297;22;20320;-81
2022/10/22 02:14:04;;;;;;;2.20;0.90;;;;;;;17.65;64.22;100848.56;6256488;22;20010;-81
2022/10/22 02:16:35;;;;;;;1.58;0.93;;;;;;;17.66;64.03;100845.09;6282467;22;20007;-81
2022/10/22 02:19:04;;;;;;;1.48;0.90;;;;;;;17.66;64.13;100847.69;6309697;22;19999;-81
2022/10/22 02:21:30;;;;;;;1.75;0.90;;;;;;;17.66;64.19;100847.69;6309730;22;20003;-82
2022/10/22 02:23:56;;;;;;;2.42;0.93;;;;;;;17.66;64.10;100845.09;6281922;22;20038;-80
2022/10/22 02:26:32;;;;;;;1.42;1.00;;;;;;;17.65;64.12;100849.41;6282251;22;20003;-82
2022/10/22 02:29:12;;;;;;;1.13;0.70;;;;;;;17.66;64.08;100855.50;6309264;22;20382;-81
2022/10/22 02:31:42;;;;;;;1.80;0.98;;;;;;;17.65;64.24;100854.63;6281747;22;20431;-81
2022/10/22 02:34:13;;;;;;;2.33;0.75;;;;;;;17.66;63.95;100847.69;6308864;22;20026;-80
2022/10/22 02:36:40;;;;;;;1.77;0.90;;;;;;;17.64;64.10;100845.09;6282122;22;20003;-81
2022/10/22 02:39:07;;;;;;;1.70;1.00;;;;;;;17.65;64.22;100843.34;6256438;22;20011;-82
2022/10/22 02:41:34;;;;;;;1.10;0.80;;;;;;;17.65;64.17;100845.94;6281899;22;20321;-81
2022/10/22 02:44:01;;;;;;;1.77;0.93;;;;;;;17.64;64.20;100844.25;6281466;22;20344;-81
2022/10/22 02:46:26;;;;;;;2.17;0.80;;;;;;;17.65;64.21;100845.94;6256354;22;20501;-80
2022/10/22 02:48:52;;;;;;;1.85;1.00;;;;;;;17.64;63.89;100839.03;6256184;22;20003;-81
2022/10/22 02:51:17;;;;;;;2.00;0.90;;;;;;;17.64;64.10;100842.50;6281951;22;20057;-81
2022/10/22 02:53:42;;;;;;;2.10;0.82;;;;;;;17.63;63.99;100848.56;6230787;22;20064;-82
2022/10/22 02:56:08;;;;;;;1.10;0.73;;;;;;;17.65;63.92;100848.56;6256256;22;20082;-81
2022/10/22 02:58:33;;;;;;;1.17;0.70;;;;;;;17.65;63.94;100845.94;6282026;22;20015;-81
2022/10/22 03:00:58;;;;;;;3.03;0.90;;;;;;;17.63;64.13;100848.56;6282064;22;20157;-82
2022/10/22 03:03:24;;;;;;;1.52;1.00;;;;;;;17.63;64.18;100842.50;6230709;22;20007;-82
2022/10/22 03:05:50;;;;;;;1.40;1.00;;;;;;;17.63;63.99;100842.50;6281930;22;20003;-81
2022/10/22 03:08:16;;;;;;;1.60;1.00;;;;;;;17.64;64.13;100844.25;6256154;22;20007;-82
2022/10/22 03:10:42;;;;;;;1.75;0.90;;;;;;;17.63;64.13;100843.34;6308658;22;20152;-82
2022/10/22 03:13:07;;;;;;;2.00;1.00;;;;;;;17.63;64.06;100845.97;6281654;22;20010;-81
2022/10/22 03:15:33;;;;;;;2.25;0.75;;;;;;;17.64;64.05;100852.06;6256160;22;20339;-81
2022/10/22 03:17:58;;;;;;;1.38;0.85;;;;;;;17.63;64.12;100848.56;6257269;22;20099;-81
2022/10/22 03:20:23;;;;;;;1.27;0.90;;;;;;;17.63;64.21;100850.31;6256124;22;20094;-81
2022/10/22 03:22:49;;;;;;;4.70;1.00;;;;;;;17.63;63.92;100848.56;6281340;22;19999;-81
2022/10/22 03:25:19;;;;;;;2.33;0.73;;;;;;;17.63;63.94;100850.31;6230836;22;20374;-81
2022/10/22 03:27:48;;;;;;;1.40;0.90;;;;;;;17.63;64.06;100850.31;6281424;22;20018;-81
2022/10/22 03:30:13;;;;;;;1.75;0.73;;;;;;;17.63;64.05;100852.91;6282307;22;20007;-81
2022/10/22 03:32:39;;;;;;;1.42;0.80;;;;;;;17.62;64.06;100846.00;6281158;22;20033;-81
2022/10/22 03:35:05;;;;;;;1.00;0.70;;;;;;;17.63;64.13;100852.91;6230245;22;20410;-81
2022/10/22 03:37:32;;;;;;;1.95;1.00;;;;;;;17.62;64.07;100848.59;6308800;22;20015;-81
2022/10/22 03:39:58;;;;;;;1.35;0.88;;;;;;;17.62;64.02;100851.19;6256012;22;20377;-81
2022/10/22 03:42:23;;;;;;;1.35;0.77;;;;;;;17.62;63.73;100853.81;6281587;22;20084;-81
2022/10/22 03:44:49;;;;;;;1.48;0.70;;;;;;;17.61;64.16;100855.50;6255750;22;20320;-81
2022/10/22 03:47:15;;;;;;;1.13;0.80;;;;;;;17.61;64.11;100855.50;6230894;22;20335;-81
2022/10/22 03:49:40;;;;;;;1.55;0.80;;;;;;;17.62;63.94;100856.41;6230471;22;20011;-81
2022/10/22 03:52:12;;;;;;;2.05;0.77;;;;;;;17.62;64.12;100861.59;6255996;22;20322;-81
2022/10/22 03:54:38;;;;;;;1.42;0.80;;;;;;;17.62;64.07;100859.00;6281252;22;19999;-81
2022/10/22 03:57:05;;;;;;;1.90;0.90;;;;;;;17.61;64.09;100871.13;6281140;22;20140;-81
2022/10/22 03:59:38;;;;;;;0.82;0.60;;;;;;;17.62;64.12;100874.63;6281495;22;20436;-81
2022/10/22 04:02:04;;;;;;;2.85;0.88;;;;;;;17.61;63.83;100878.09;6281584;22;20008;-81
2022/10/22 04:04:30;;;;;;;1.38;0.70;;;;;;;17.62;63.84;100882.44;6256186;22;20304;-82
2022/10/22 04:06:55;;;;;;;1.27;0.82;;;;;;;17.61;64.05;100888.50;6281241;22;20034;-81
2022/10/22 04:09:21;;;;;;;2.22;0.90;;;;;;;17.61;63.88;100886.75;6255893;22;20011;-82
2022/10/22 04:11:46;;;;;;;2.30;0.88;;;;;;;17.61;64.10;100884.13;6280889;22;20011;-82
2022/10/22 04:14:11;;;;;;;1.45;0.70;;;;;;;17.61;64.09;100888.50;6255933;22;20007;-82
2022/10/22 04:16:39;;;;;;;1.85;0.80;;;;;;;17.62;63.94;100887.63;6230396;22;20427;-82
2022/10/22 04:19:05;;;;;;;1.85;0.80;;;;;;;17.61;63.92;100889.34;6308517;22;20027;-82
2022/10/22 04:21:30;;;;;;;1.60;0.80;;;;;;;17.61;64.04;100888.50;6255660;22;20007;-82
2022/10/22 04:23:56;;;;;;;1.50;0.88;;;;;;;17.61;63.89;100891.09;6308284;22;20018;-81
2022/10/22 04:26:21;;;;;;;1.73;0.80;;;;;;;17.60;64.06;100890.22;6308868;22;20075;-82
2022/10/22 04:28:49;;;;;;;2.88;0.93;;;;;;;17.60;63.86;100898.03;6230326;22;20015;-80
2022/10/22 04:31:18;;;;;;;0.90;0.65;;;;;;;17.60;63.94;100892.84;6281280;22;20082;-81
2022/10/22 04:33:44;;;;;;;2.45;0.80;;;;;;;17.61;64.06;100902.34;6308200;22;20030;-80
2022/10/22 04:36:17;;;;;;;2.25;0.60;;;;;;;17.61;63.91;100902.34;6280897;22;20076;-80
2022/10/22 04:38:44;;;;;;;2.22;0.82;;;;;;;17.60;64.04;100898.03;6280791;22;20419;-80
2022/10/22 04:41:15;;;;;;;1.95;0.98;;;;;;;17.60;64.15;100897.19;6308357;22;20003;-81
2022/10/22 04:43:41;;;;;;;1.63;0.70;;;;;;;17.61;64.21;100896.28;6280934;22;20064;-81
2022/10/22 04:46:09;;;;;;;1.85;0.80;;;;;;;17.61;63.99;100898.91;6308174;22;19999;-81
2022/10/22 04:48:36;;;;;;;1.30;0.77;;;;;;;17.62;64.01;100900.63;6308055;22;19999;-81
2022/10/22 04:51:02;;;;;;;1.38;0.80;;;;;;;17.61;63.98;100891.09;6280968;22;20056;-81
2022/10/22 04:53:27;;;;;;;1.70;0.80;;;;;;;17.62;64.06;100898.03;6281045;22;20003;-81
2022/10/22 04:55:53;;;;;;;1.30;0.70;;;;;;;17.60;64.01;100898.03;6281118;22;20503;-81
2022/10/22 04:58:19;;;;;;;1.17;0.70;;;;;;;17.60;63.88;100905.84;6308336;22;20354;-81
2022/10/22 05:00:44;;;;;;;1.80;1.00;;;;;;;17.59;63.86;100901.50;6308696;22;19999;-81
2022/10/22 05:03:09;;;;;;;1.17;0.70;;;;;;;17.60;63.78;100907.59;6255367;22;19999;-81
2022/10/22 05:05:35;;;;;;;1.15;0.63;;;;;;;17.61;64.00;100909.31;6255586;22;20015;-81
2022/10/22 05:08:00;;;;;;;2.08;0.90;;;;;;;17.60;63.78;100905.84;6256741;22;20038;-81
2022/10/22 05:10:26;;;;;;;1.48;0.70;;;;;;;17.60;63.85;100905.84;6310306;22;20335;-81
2022/10/22 05:12:52;;;;;;;1.80;0.80;;;;;;;17.61;64.08;100914.50;6283241;22;20007;-81
2022/10/22 05:15:17;;;;;;;3.28;0.80;;;;;;;17.60;64.06;100918.00;6283054;22;20007;-81
2022/10/22 05:17:42;;;;;;;2.80;0.80;;;;;;;17.60;63.85;100912.81;6257229;22;20007;-81
2022/10/22 05:20:08;;;;;;;1.98;0.77;;;;;;;17.59;63.74;100913.66;6282150;22;20045;-79
2022/10/22 05:22:34;;;;;;;1.20;0.80;;;;;;;17.59;63.87;100913.66;6231838;22;20015;-80
2022/10/22 05:24:59;;;;;;;1.40;0.63;;;;;;;17.58;63.87;100923.22;6256687;22;20054;-80
2022/10/22 05:27:25;;;;;;;1.70;0.77;;;;;;;17.58;63.94;100928.41;6257292;22;20060;-79
2022/10/22 05:29:50;;;;;;;1.63;0.80;;;;;;;17.59;63.64;100926.66;6282257;22;20327;-79
2022/10/22 05:32:16;;;;;;;1.23;0.70;;;;;;;17.59;63.91;100926.66;6256744;22;20007;-79
2022/10/22 05:34:41;;;;;;;1.88;0.70;;;;;;;17.59;63.93;100926.66;6256837;22;20061;-79
2022/10/22 05:37:07;;;;;;;1.98;0.93;;;;;;;17.59;64.00;100926.66;6282239;22;20026;-79
2022/10/22 05:39:35;;;;;;;1.73;0.90;;;;;;;17.58;63.88;100930.16;6282103;22;20011;-79
2022/10/22 05:42:01;;;;;;;1.30;0.70;;;;;;;17.58;64.13;100930.16;6283036;22;20007;-79
2022/10/22 05:44:27;;;;;;;1.38;0.68;;;;;;;17.58;63.88;100930.16;6309515;22;20035;-80
2022/10/22 05:46:52;;;;;;;1.77;0.75;;;;;;;17.57;64.00;100931.91;6257004;22;20003;-79
2022/10/22 05:49:17;;;;;;;1.52;0.70;;;;;;;17.57;63.98;100936.22;6231408;22;20015;-79
2022/10/22 05:51:43;;;;;;;1.38;0.70;;;;;;;17.58;63.63;100935.38;6256595;22;20012;-79
2022/10/22 05:54:16;;;;;;;2.50;0.57;;;;;;;17.58;63.89;100932.75;6256511;22;20006;-79
2022/10/22 05:56:41;;;;;;;2.60;1.23;;;;;;;17.58;64.10;100940.56;6282417;22;19999;-78
2022/10/22 05:59:09;;;;;;;2.40;0.88;;;;;;;17.58;63.88;100945.78;6256279;22;20103;-79
2022/10/22 06:01:35;;;;;;;1.92;0.80;;;;;;;17.58;63.73;100949.22;6309426;22;20010;-78
2022/10/22 06:04:03;;;;;;;1.75;0.68;;;;;;;17.58;64.08;100948.38;6282019;22;20427;-78
2022/10/22 06:06:35;;;;;;;1.27;0.90;;;;;;;17.58;63.96;100951.84;6282344;22;20009;-79
2022/10/22 06:09:06;;;;;;;1.38;0.80;;;;;;;17.60;63.82;100957.03;6281845;22;20358;-79
2022/10/22 06:11:31;;;;;;;1.45;0.70;;;;;;;17.60;64.14;100957.91;6282025;22;20008;-78
2022/10/22 06:13:57;;;;;;;1.92;0.60;;;;;;;17.61;64.05;100961.34;6309429;22;20411;-78
2022/10/22 06:16:22;;;;;;;1.63;0.80;;;;;;;17.62;64.12;100968.31;6281796;22;20056;-79
2022/10/22 06:18:47;;;;;;;2.30;0.98;;;;;;;17.63;63.96;100970.88;6310900;22;20010;-80
2022/10/22 06:21:14;;;;;;;1.30;0.70;;;;;;;17.64;64.02;100974.34;6291056;22;20011;-79
2022/10/22 06:23:41;;;;;;;1.27;0.73;;;;;;;17.65;64.29;100978.69;6294671;22;20031;-79
2022/10/22 06:26:06;;;;;;;1.80;0.70;;;;;;;17.66;63.96;100977.81;6292694;22;20022;-78
2022/10/22 06:28:32;;;;;;;1.00;0.63;;;;;;;17.66;64.20;100976.06;6243450;22;20007;-80
2022/10/22 06:30:59;;;;;;;1.25;0.70;;;;;;;17.67;64.16;100975.19;6269536;22;20014;-81
2022/10/22 06:33:26;;;;;;;1.63;0.80;;;;;;;17.69;64.13;100980.38;6295989;22;20036;-81
2022/10/22 06:35:51;;;;;;;1.40;0.88;;;;;;;17.69;64.16;100980.38;6295262;22;20015;-80
2022/10/22 06:38:17;;;;;;;2.60;0.70;;;;;;;17.70;64.17;100987.28;6270172;22;20034;-80
2022/10/22 06:40:43;;;;;;;1.90;0.98;;;;;;;17.70;64.09;100992.50;6296423;22;20011;-81
2022/10/22 06:43:10;;;;;;;1.38;0.68;;;;;;;17.70;64.12;100997.72;6247833;22;20067;-82
2022/10/22 06:45:36;;;;;;;1.10;0.60;;;;;;;17.71;64.19;100994.25;6325370;22;20003;-82
2022/10/22 06:48:02;;;;;;;1.33;0.70;;;;;;;17.71;64.27;100990.78;6297668;22;20026;-84
2022/10/22 06:50:27;;;;;;;1.00;0.70;;;;;;;17.73;64.05;101002.91;6292006;22;20097;-79
2022/10/22 06:52:52;;;;;;;2.17;0.70;;;;;;;17.74;64.25;101004.63;6264555;22;20018;-82
2022/10/22 06:55:18;;;;;;;1.30;0.70;;;;;;;17.73;64.13;101009.88;6260469;22;20014;-82
2022/10/22 06:57:43;;;;;;;1.02;0.60;;;;;;;17.72;64.05;101013.31;6236589;22;20018;-86
2022/10/22 07:00:09;;;;;;;2.53;0.73;;;;;;;17.71;64.35;101009.88;6237638;22;20496;-86
2022/10/22 07:02:34;;;;;;;1.40;0.70;;;;;;;17.71;64.18;101017.66;6287967;22;20026;-81
2022/10/22 07:04:59;;;;;;;8.77;3.13;;;;;;;17.85;64.05;101017.59;6260469;22;20014;-78
2022/10/22 07:07:25;;;;;;;15.05;4.57;;;;;;;17.91;63.83;101017.56;6285127;22;20010;-78
2022/10/22 07:09:50;;;;;;;15.10;5.25;;;;;;;17.92;63.90;101021.91;6313107;22;20064;-78
2022/10/22 07:12:16;;;;;;;15.50;3.90;;;;;;;17.91;64.02;101016.69;6285726;22;20011;-78
2022/10/22 07:14:42;;;;;;;9.90;3.10;;;;;;;17.92;64.37;101024.50;6310780;22;20052;-77
2022/10/22 07:17:08;;;;;;;11.25;3.28;;;;;;;17.94;64.01;101032.28;6311708;22;20003;-77
2022/10/22 07:19:33;;;;;;;13.82;3.08;;;;;;;17.93;64.14;101035.78;6311206;22;20003;-77
2022/10/22 07:21:59;;;;;;;9.75;2.13;;;;;;;17.93;63.99;101035.78;6283657;22;20037;-77
2022/10/22 07:24:24;;;;;;;8.07;2.80;;;;;;;17.93;64.10;101033.16;6284397;22;20439;-77
2022/10/22 07:26:49;;;;;;;4.80;1.95;;;;;;;17.95;64.15;101042.69;6257934;22;20006;-77
2022/10/22 07:29:15;;;;;;;7.60;1.80;;;;;;;17.95;64.23;101049.66;6231438;22;20052;-77
2022/10/22 07:31:42;;;;;;;7.68;2.05;;;;;;;17.97;64.13;101047.91;6257521;22;20011;-80
2022/10/22 07:34:07;;;;;;;6.60;1.88;;;;;;;18.00;64.14;101056.53;6257598;22;20057;-77
2022/10/22 07:36:33;;;;;;;5.20;1.80;;;;;;;18.05;64.14;101059.09;6257897;22;20429;-77
2022/10/22 07:38:59;;;;;;;7.75;1.92;;;;;;;18.07;64.02;101059.94;6283076;22;20007;-77
2022/10/22 07:41:26;;;;;;;5.28;2.20;;;;;;;18.08;64.07;101062.53;6285776;22;20038;-80
2022/10/22 07:43:51;;;;;;;5.40;1.80;;;;;;;18.12;64.06;101062.50;6284926;22;19999;-80
2022/10/22 07:46:17;;;;;;;4.80;1.60;;;;;;;18.14;64.00;101069.47;6312185;22;20069;-81
2022/10/22 07:48:42;;;;;;;4.20;1.80;;;;;;;18.13;63.93;101067.72;6312420;22;20010;-80
2022/10/22 07:51:08;;;;;;;4.38;1.50;;;;;;;18.13;63.93;101072.91;6284435;22;20007;-81
2022/10/22 07:53:33;;;;;;;3.15;1.50;;;;;;;18.17;64.08;101077.22;6258920;22;20022;-81
2022/10/22 07:55:59;;;;;;;3.63;1.50;;;;;;;18.15;63.83;101073.78;6310754;22;20010;-81
2022/10/22 07:58:24;;;;;;;6.18;1.63;;;;;;;18.14;64.17;101074.66;6259409;22;20095;-81
2022/10/22 08:00:50;;;;;;;4.00;1.67;;;;;;;18.12;64.06;101085.94;6283947;22;20049;-83
2022/10/22 08:03:17;;;;;;;4.53;1.70;;;;;;;18.10;64.08;101088.59;6257900;22;20057;-84
2022/10/22 08:05:45;;;;;;;2.83;1.48;;;;;;;18.11;64.10;101095.50;6284390;22;20066;-83
2022/10/22 08:08:13;;;;;;;4.55;1.60;;;;;;;18.09;64.15;101092.94;6284145;22;20439;-82
2022/10/22 08:10:38;;;;;;;2.47;1.23;;;;;;;18.08;64.58;101099.00;6284217;22;20007;-82
2022/10/22 08:13:05;;;;;;;4.13;1.85;;;;;;;18.12;64.41;101101.56;6258253;22;20014;-86
2022/10/22 08:15:30;;;;;;;4.70;1.60;;;;;;;18.15;64.67;101102.44;6310823;22;19999;-81
2022/10/22 08:17:56;;;;;;;10.20;1.90;;;;;;;18.14;64.67;101108.53;6282922;22;20010;-81
2022/10/22 08:20:21;;;;;;;11.27;1.73;;;;;;;18.19;64.69;101111.94;6282298;22;20003;-79
2022/10/22 08:22:47;;;;;;;11.50;1.90;;;;;;;18.23;64.49;101113.66;6282268;22;20426;-80
2022/10/22 08:25:12;;;;;;;14.43;2.40;;;;;;;18.27;64.66;101120.56;6282393;22;20016;-80
2022/10/22 08:27:38;;;;;;;8.10;2.35;;;;;;;18.32;64.17;101125.75;6256446;22;20031;-77
2022/10/22 08:30:04;;;;;;;8.82;2.20;;;;;;;18.32;64.34;101127.50;6281558;22;20025;-79
2022/10/22 08:32:30;;;;;;;11.05;2.20;;;;;;;18.26;64.36;101133.59;6308461;22;20007;-79
2022/10/22 08:34:55;;;;;;;6.97;2.50;;;;;;;18.30;64.54;101138.78;6256310;22;20110;-84
2022/10/22 08:37:21;;;;;;;10.75;2.13;;;;;;;18.24;65.76;101141.41;6282816;22;20041;-84
2022/10/22 08:39:46;;;;;;;7.25;2.60;;;;;;;17.41;82.73;101141.88;6282624;22;20025;-76
2022/10/22 08:42:36;;;;;;;10.13;2.60;;;;;;;17.11;86.20;101152.38;6256853;22;20400;-77
2022/10/22 08:45:11;;;;;;;9.15;2.55;;;;;;;17.02;87.15;101150.66;6283721;22;20066;-78
2022/10/22 08:48:03;;;;;;;11.75;2.20;;;;;;;16.97;87.99;101147.22;6283594;22;20003;-77
2022/10/22 08:50:37;;;;;;;5.25;2.10;;;;;;;16.89;88.56;101148.94;6283868;22;20013;-78
2022/10/22 08:53:11;;;;;;;6.18;2.08;;;;;;;16.83;88.78;101155.91;6310119;22;20002;-77
2022/10/22 08:55:37;;;;;;;9.25;2.13;;;;;;;16.82;88.79;101156.75;6282707;22;20010;-77
2022/10/22 08:58:30;;;;;;;6.75;1.80;;;;;;;16.79;89.18;101168.88;6309952;22;19995;-78
2022/10/22 09:01:04;;;;;;;6.53;2.15;;;;;;;16.76;89.31;101168.84;6284432;22;20003;-78
2022/10/22 09:03:36;;;;;;;5.63;1.90;;;;;;;16.71;89.51;101175.81;6287217;22;20098;-78
2022/10/22 09:06:15;;;;;;;7.57;1.70;;;;;;;16.69;90.02;101178.41;6311565;22;20000;-77
2022/10/22 09:08:44;;;;;;;7.50;1.92;;;;;;;16.72;89.63;101174.91;6315115;22;20003;-78
2022/10/22 09:11:18;;;;;;;7.45;1.98;;;;;;;16.75;89.98;101183.59;6312983;22;20058;-78
2022/10/22 09:13:45;;;;;;;6.97;1.80;;;;;;;16.73;90.28;101185.31;6282747;22;20002;-77
2022/10/22 09:16:19;;;;;;;4.57;1.65;;;;;;;16.73;90.22;101192.25;6310060;22;20435;-77
2022/10/22 09:18:56;;;;;;;4.20;1.65;;;;;;;16.68;90.23;101194.88;6309813;22;20356;-77
2022/10/22 09:21:55;;;;;;;6.20;1.85;;;;;;;16.64;90.28;101195.72;6282492;22;20004;-77
2022/10/22 09:24:43;;;;;;;8.10;1.90;;;;;;;16.65;90.65;101197.44;6282142;22;20010;-77
2022/10/22 09:27:29;;;;;;;5.28;1.60;;;;;;;16.69;90.59;101201.78;6282584;22;20007;-84
2022/10/22 09:29:55;;;;;;;5.72;1.90;;;;;;;16.71;90.67;101201.78;6310249;22;20342;-83
2022/10/22 09:32:21;;;;;;;6.03;2.17;;;;;;;16.72;90.80;101198.31;6282856;22;20030;-84
2022/10/22 09:34:48;;;;;;;5.15;1.90;;;;;;;16.71;90.76;101201.78;6309874;22;20086;-85
2022/10/22 09:37:17;;;;;;;4.72;2.00;;;;;;;16.69;90.65;101209.56;6282885;22;20029;-83
2022/10/22 09:39:50;;;;;;;5.78;1.83;;;;;;;16.70;90.93;101211.31;6284313;22;20007;-83
2022/10/22 09:42:17;;;;;;;5.38;1.42;;;;;;;16.72;90.78;101217.34;6292443;22;20082;-80
2022/10/22 09:44:49;;;;;;;5.55;1.80;;;;;;;16.76;91.01;101223.44;6285445;22;20022;-83
2022/10/22 09:47:38;;;;;;;4.32;1.65;;;;;;;16.79;90.62;101223.44;6283265;22;20019;-84
2022/10/22 09:50:48;;;;;;;6.78;1.92;;;;;;;16.83;90.84;101230.38;6311643;22;20062;-84
2022/10/22 09:53:19;;;;;;;5.35;1.50;;;;;;;16.79;90.91;101236.44;6256630;22;20453;-85
2022/10/22 09:55:51;;;;;;;3.70;1.80;;;;;;;16.78;90.67;101237.28;6283419;22;20031;-86
2022/10/22 09:58:17;;;;;;;7.97;1.50;;;;;;;16.79;90.80;101239.91;6310866;22;20038;-85
2022/10/22 10:00:45;;;;;;;4.45;1.70;;;;;;;16.81;91.11;101245.13;6257485;22;20457;-85
2022/10/22 10:03:28;;;;;;;5.85;1.60;;;;;;;16.80;91.31;101246.84;6283708;22;20011;-88
2022/10/22 10:05:57;;;;;;;7.70;1.90;;;;;;;16.76;90.88;101252.03;6260980;22;20031;-87
2022/10/22 10:08:23;;;;;;;5.93;1.73;;;;;;;16.72;90.74;101258.06;6284469;22;20061;-88
2022/10/22 10:10:55;;;;;;;6.45;1.77;;;;;;;16.70;90.73;101257.22;6259435;22;20374;-87
2022/10/22 10:13:50;;;;;;;16.13;3.30;;;;;;;16.72;90.54;101261.53;6284347;22;20010;-86
2022/10/22 10:16:44;;;;;;;14.90;2.72;;;;;;;16.84;90.67;101260.72;6285565;22;20028;-91
2022/10/22 10:22:53;;;;;;;12.82;2.92;;;;;;;16.94;91.43;101267.69;6317476;22;20022;-88
2022/10/22 10:25:46;;;;;;;9.55;2.30;;;;;;;16.96;91.73;101273.75;6278684;22;20011;-88
2022/10/22 10:28:18;;;;;;;6.10;2.15;;;;;;;16.99;91.79;101278.94;6289328;22;20042;-90
2022/10/22 10:31:09;;;;;;;8.18;1.95;;;;;;;16.96;91.64;101284.16;6288769;22;20003;-88
2022/10/22 10:34:12;;;;;;;6.55;1.90;;;;;;;16.95;91.26;101289.34;6284779;22;20012;-89
2022/10/22 10:37:21;;;;;;;8.50;1.83;;;;;;;16.95;91.22;101294.53;6285742;22;20094;-92
2022/10/22 10:39:47;;;;;;;7.45;2.22;;;;;;;16.90;91.14;101301.44;6285717;22;20003;-91
2022/10/22 10:42:42;;;;;;;4.88;1.92;;;;;;;16.85;91.17;101304.03;6285440;22;20014;-90
2022/10/22 10:45:22;;;;;;;7.65;2.10;;;;;;;16.82;91.10;101302.31;6284954;22;20331;-90
2022/10/22 10:48:15;;;;;;;5.97;1.65;;;;;;;16.83;91.11;101306.66;6285066;22;20014;-90
2022/10/22 10:51:16;;;;;;;5.15;1.80;;;;;;;16.83;90.88;101314.47;6312911;22;20003;-91
2022/10/22 10:54:15;;;;;;;5.00;1.42;;;;;;;16.84;91.13;101315.31;6285730;22;19997;-91
2022/10/22 10:56:46;;;;;;;3.80;1.67;;;;;;;16.77;90.88;101309.22;6286182;22;20011;-90
2022/10/22 10:59:50;;;;;;;7.40;1.95;;;;;;;16.74;90.83;101311.78;6284930;22;20068;-89
2022/10/22 11:03:00;;;;;;;6.05;1.80;;;;;;;16.74;90.96;101318.72;6313881;22;20011;-90
2022/10/22 11:05:38;;;;;;;6.30;1.80;;;;;;;16.77;91.13;101317.00;6287571;22;20561;-89
2022/10/22 11:08:28;;;;;;;4.45;1.33;;;;;;;16.75;91.18;101323.94;6302381;22;20002;-90
2022/10/22 11:11:10;;;;;;;4.63;1.50;;;;;;;16.72;91.00;101330.84;6288369;22;20011;-88
2022/10/22 11:13:38;;;;;;;4.70;1.73;;;;;;;16.71;90.92;101329.13;6285840;22;20062;-91
2022/10/22 11:16:14;;;;;;;5.00;1.48;;;;;;;16.72;91.06;101329.09;6287345;22;20331;-89
2022/10/22 11:18:47;;;;;;;6.57;1.48;;;;;;;16.71;91.08;101323.94;6286311;22;20415;-89
2022/10/22 11:21:41;;;;;;;5.85;1.73;;;;;;;16.73;91.32;101319.59;6311958;22;20431;-90
2022/10/22 11:24:06;;;;;;;6.05;1.67;;;;;;;16.72;91.35;101325.66;6284507;22;20006;-81
2022/10/22 11:26:32;;;;;;;5.13;1.80;;;;;;;16.69;91.14;101334.31;6281240;22;20011;-81
2022/10/22 11:29:01;;;;;;;6.68;1.60;;;;;;;16.68;91.12;101335.19;6281442;22;20141;-81
2022/10/22 11:31:29;;;;;;;4.28;1.45;;;;;;;16.67;90.56;101341.25;6280993;22;19999;-81
2022/10/22 11:34:21;;;;;;;5.55;1.40;;;;;;;16.68;90.72;101340.38;6255990;22;20003;-81
2022/10/22 11:36:48;;;;;;;4.15;1.45;;;;;;;16.68;90.52;101340.38;6295120;22;20439;-81
2022/10/22 11:39:44;;;;;;;4.80;1.45;;;;;;;16.68;90.41;101343.00;6255760;22;20098;-83
2022/10/22 11:42:17;;;;;;;5.43;1.65;;;;;;;16.68;90.80;101332.59;6308834;22;20442;-82
2022/10/22 11:44:59;;;;;;;4.97;1.77;;;;;;;16.69;89.92;101338.66;6287605;22;20090;-81